sensor_id;sensor_type;location;lat;lon;timestamp;P1;durP1;ratioP1;P2;durP2;ratioP2
47599;SDS011;33323;52.124;6.018;2022-08-05T00:02:20;7.55;;;3.70;;
47599;SDS011;33323;52.124;6.018;2022-08-05T00:04:47;4.88;;;2.90;;
47599;SDS011;33323;52.124;6.018;2022-08-05T00:07:21;7.38;;;2.53;;
47599;SDS011;33323;52.124;6.018;2022-08-05T00:10:09;5.70;;;2.60;;
47599;SDS011;33323;52.124;6.018;2022-08-05T00:12:36;9.93;;;3.20;;
47599;SDS011;33323;52.124;6.018;2022-08-05T00:15:21;6.05;;;3.17;;
47599;SDS011;33323;52.124;6.018;2022-08-05T00:18:09;6.18;;;2.97;;
47599;SDS011;33323;52.124;6.018;2022-08-05T00:20:47;5.47;;;3.15;;
47599;SDS011;33323;52.124;6.018;2022-08-05T00:23:16;6.38;;;3.13;;
47599;SDS011;33323;52.124;6.018;2022-08-05T00:26:04;5.22;;;3.30;;
47599;SDS011;33323;52.124;6.018;2022-08-05T00:28:33;7.50;;;3.30;;
47599;SDS011;33323;52.124;6.018;2022-08-05T00:31:01;4.07;;;2.67;;
47599;SDS011;33323;52.124;6.018;2022-08-05T00:33:32;10.00;;;3.40;;
47599;SDS011;33323;52.124;6.018;2022-08-05T00:36:20;4.30;;;3.00;;
47599;SDS011;33323;52.124;6.018;2022-08-05T00:39:09;9.02;;;2.90;;
47599;SDS011;33323;52.124;6.018;2022-08-05T00:41:39;5.68;;;2.75;;
47599;SDS011;33323;52.124;6.018;2022-08-05T00:44:21;8.52;;;3.78;;
47599;SDS011;33323;52.124;6.018;2022-08-05T00:46:57;8.77;;;2.70;;
47599;SDS011;33323;52.124;6.018;2022-08-05T00:49:31;5.55;;;2.75;;
47599;SDS011;33323;52.124;6.018;2022-08-05T00:52:16;9.32;;;2.72;;
47599;SDS011;33323;52.124;6.018;2022-08-05T00:54:54;9.20;;;3.25;;
47599;SDS011;33323;52.124;6.018;2022-08-05T00:57:21;6.40;;;3.38;;
47599;SDS011;33323;52.124;6.018;2022-08-05T01:02:23;8.25;;;3.33;;
47599;SDS011;33323;52.124;6.018;2022-08-05T01:04:50;9.35;;;4.22;;
47599;SDS011;33323;52.124;6.018;2022-08-05T01:07:17;8.05;;;3.55;;
47599;SDS011;33323;52.124;6.018;2022-08-05T01:09:44;8.40;;;3.78;;
47599;SDS011;33323;52.124;6.018;2022-08-05T01:12:20;7.10;;;3.97;;
47599;SDS011;33323;52.124;6.018;2022-08-05T01:15:04;6.60;;;3.45;;
47599;SDS011;33323;52.124;6.018;2022-08-05T01:18:00;8.80;;;3.17;;
47599;SDS011;33323;52.124;6.018;2022-08-05T01:26:32;9.45;;;3.38;;
47599;SDS011;33323;52.124;6.018;2022-08-05T01:29:22;9.60;;;3.20;;
47599;SDS011;33323;52.124;6.018;2022-08-05T01:32:01;5.90;;;4.10;;
47599;SDS011;33323;52.124;6.018;2022-08-05T01:34:44;8.25;;;2.97;;
47599;SDS011;33323;52.124;6.018;2022-08-05T01:37:31;6.38;;;3.95;;
47599;SDS011;33323;52.124;6.018;2022-08-05T01:40:11;6.25;;;3.45;;
47599;SDS011;33323;52.124;6.018;2022-08-05T01:42:43;7.70;;;3.63;;
47599;SDS011;33323;52.124;6.018;2022-08-05T01:45:12;6.50;;;3.97;;
47599;SDS011;33323;52.124;6.018;2022-08-05T01:47:41;5.68;;;3.50;;
47599;SDS011;33323;52.124;6.018;2022-08-05T01:50:18;7.57;;;3.55;;
47599;SDS011;33323;52.124;6.018;2022-08-05T01:52:55;6.53;;;3.53;;
47599;SDS011;33323;52.124;6.018;2022-08-05T01:55:30;4.70;;;3.25;;
47599;SDS011;33323;52.124;6.018;2022-08-05T01:58:03;8.73;;;3.83;;
47599;SDS011;33323;52.124;6.018;2022-08-05T02:00:41;8.63;;;4.05;;
47599;SDS011;33323;52.124;6.018;2022-08-05T02:03:15;5.45;;;3.75;;
47599;SDS011;33323;52.124;6.018;2022-08-05T02:05:56;5.78;;;3.63;;
47599;SDS011;33323;52.124;6.018;2022-08-05T02:08:45;6.95;;;3.20;;
47599;SDS011;33323;52.124;6.018;2022-08-05T02:11:24;6.85;;;3.28;;
47599;SDS011;33323;52.124;6.018;2022-08-05T02:14:08;8.35;;;3.85;;
47599;SDS011;33323;52.124;6.018;2022-08-05T02:16:43;5.68;;;3.78;;
47599;SDS011;33323;52.124;6.018;2022-08-05T02:21:57;5.88;;;3.30;;
47599;SDS011;33323;52.124;6.018;2022-08-05T02:24:52;9.02;;;3.70;;
47599;SDS011;33323;52.124;6.018;2022-08-05T02:27:33;7.20;;;4.07;;
47599;SDS011;33323;52.124;6.018;2022-08-05T02:30:24;9.40;;;4.03;;
47599;SDS011;33323;52.124;6.018;2022-08-05T02:32:55;16.83;;;3.63;;
47599;SDS011;33323;52.124;6.018;2022-08-05T02:35:25;8.82;;;3.72;;
47599;SDS011;33323;52.124;6.018;2022-08-05T02:38:10;6.57;;;3.38;;
47599;SDS011;33323;52.124;6.018;2022-08-05T02:40:45;11.23;;;4.32;;
47599;SDS011;33323;52.124;6.018;2022-08-05T02:43:12;8.40;;;3.50;;
47599;SDS011;33323;52.124;6.018;2022-08-05T02:45:42;9.68;;;3.97;;
47599;SDS011;33323;52.124;6.018;2022-08-05T02:48:18;11.07;;;4.63;;
47599;SDS011;33323;52.124;6.018;2022-08-05T02:50:55;8.63;;;3.85;;
47599;SDS011;33323;52.124;6.018;2022-08-05T02:53:28;6.07;;;3.92;;
47599;SDS011;33323;52.124;6.018;2022-08-05T02:56:04;5.28;;;3.40;;
47599;SDS011;33323;52.124;6.018;2022-08-05T02:58:35;5.90;;;3.45;;
47599;SDS011;33323;52.124;6.018;2022-08-05T03:01:10;8.65;;;3.63;;
47599;SDS011;33323;52.124;6.018;2022-08-05T03:03:45;7.55;;;3.42;;
47599;SDS011;33323;52.124;6.018;2022-08-05T03:06:29;12.82;;;3.70;;
47599;SDS011;33323;52.124;6.018;2022-08-05T03:09:16;6.28;;;4.13;;
47599;SDS011;33323;52.124;6.018;2022-08-05T03:12:03;5.90;;;3.65;;
47599;SDS011;33323;52.124;6.018;2022-08-05T03:14:30;9.52;;;3.70;;
47599;SDS011;33323;52.124;6.018;2022-08-05T03:16:58;8.65;;;3.63;;
47599;SDS011;33323;52.124;6.018;2022-08-05T03:19:26;4.97;;;3.83;;
47599;SDS011;33323;52.124;6.018;2022-08-05T03:22:01;6.65;;;4.47;;
47599;SDS011;33323;52.124;6.018;2022-08-05T03:24:30;11.63;;;3.92;;
47599;SDS011;33323;52.124;6.018;2022-08-05T03:27:00;7.60;;;5.25;;
47599;SDS011;33323;52.124;6.018;2022-08-05T03:29:27;8.60;;;4.85;;
47599;SDS011;33323;52.124;6.018;2022-08-05T03:32:14;11.75;;;4.65;;
47599;SDS011;33323;52.124;6.018;2022-08-05T03:34:44;9.23;;;4.40;;
47599;SDS011;33323;52.124;6.018;2022-08-05T03:37:16;8.70;;;4.30;;
47599;SDS011;33323;52.124;6.018;2022-08-05T03:40:04;9.07;;;3.85;;
47599;SDS011;33323;52.124;6.018;2022-08-05T03:42:37;5.47;;;3.97;;
47599;SDS011;33323;52.124;6.018;2022-08-05T03:45:17;7.07;;;3.90;;
47599;SDS011;33323;52.124;6.018;2022-08-05T03:47:48;8.75;;;3.63;;
47599;SDS011;33323;52.124;6.018;2022-08-05T03:50:16;7.07;;;4.03;;
47599;SDS011;33323;52.124;6.018;2022-08-05T03:52:49;7.75;;;4.10;;
47599;SDS011;33323;52.124;6.018;2022-08-05T03:55:45;7.57;;;3.90;;
47599;SDS011;33323;52.124;6.018;2022-08-05T03:58:37;7.15;;;3.58;;
47599;SDS011;33323;52.124;6.018;2022-08-05T04:01:09;7.20;;;3.95;;
47599;SDS011;33323;52.124;6.018;2022-08-05T04:03:38;8.82;;;4.45;;
47599;SDS011;33323;52.124;6.018;2022-08-05T04:06:30;7.10;;;4.03;;
47599;SDS011;33323;52.124;6.018;2022-08-05T04:09:01;11.30;;;4.40;;
47599;SDS011;33323;52.124;6.018;2022-08-05T04:11:32;6.38;;;4.30;;
47599;SDS011;33323;52.124;6.018;2022-08-05T04:14:17;6.90;;;3.55;;
47599;SDS011;33323;52.124;6.018;2022-08-05T04:16:55;5.60;;;3.45;;
47599;SDS011;33323;52.124;6.018;2022-08-05T04:19:26;6.15;;;3.08;;
47599;SDS011;33323;52.124;6.018;2022-08-05T04:21:54;7.30;;;3.10;;
47599;SDS011;33323;52.124;6.018;2022-08-05T04:24:40;4.43;;;2.95;;
47599;SDS011;33323;52.124;6.018;2022-08-05T04:27:18;4.30;;;2.72;;
47599;SDS011;33323;52.124;6.018;2022-08-05T04:30:05;9.40;;;3.15;;
47599;SDS011;33323;52.124;6.018;2022-08-05T04:32:34;8.55;;;4.05;;
47599;SDS011;33323;52.124;6.018;2022-08-05T04:35:03;10.23;;;3.55;;
47599;SDS011;33323;52.124;6.018;2022-08-05T04:37:31;8.48;;;4.05;;
47599;SDS011;33323;52.124;6.018;2022-08-05T04:40:18;5.88;;;2.65;;
47599;SDS011;33323;52.124;6.018;2022-08-05T04:42:45;4.28;;;2.75;;
47599;SDS011;33323;52.124;6.018;2022-08-05T04:45:13;7.03;;;2.95;;
47599;SDS011;33323;52.124;6.018;2022-08-05T04:48:04;5.70;;;2.92;;
47599;SDS011;33323;52.124;6.018;2022-08-05T04:50:53;7.03;;;2.90;;
47599;SDS011;33323;52.124;6.018;2022-08-05T04:53:29;6.53;;;2.58;;
47599;SDS011;33323;52.124;6.018;2022-08-05T04:56:00;5.38;;;2.38;;
47599;SDS011;33323;52.124;6.018;2022-08-05T04:58:48;5.65;;;3.28;;
47599;SDS011;33323;52.124;6.018;2022-08-05T05:01:16;7.97;;;2.85;;
47599;SDS011;33323;52.124;6.018;2022-08-05T05:04:03;6.72;;;2.22;;
47599;SDS011;33323;52.124;6.018;2022-08-05T05:06:30;4.22;;;2.42;;
47599;SDS011;33323;52.124;6.018;2022-08-05T05:09:06;7.88;;;2.90;;
47599;SDS011;33323;52.124;6.018;2022-08-05T05:11:33;5.72;;;2.53;;
47599;SDS011;33323;52.124;6.018;2022-08-05T05:14:20;5.10;;;2.10;;
47599;SDS011;33323;52.124;6.018;2022-08-05T05:17:00;10.05;;;2.50;;
47599;SDS011;33323;52.124;6.018;2022-08-05T05:19:28;5.57;;;2.30;;
47599;SDS011;33323;52.124;6.018;2022-08-05T05:22:09;6.20;;;3.00;;
47599;SDS011;33323;52.124;6.018;2022-08-05T05:24:51;5.72;;;2.60;;
47599;SDS011;33323;52.124;6.018;2022-08-05T05:27:29;4.47;;;2.22;;
47599;SDS011;33323;52.124;6.018;2022-08-05T05:30:14;7.30;;;2.60;;
47599;SDS011;33323;52.124;6.018;2022-08-05T05:32:56;8.52;;;2.63;;
47599;SDS011;33323;52.124;6.018;2022-08-05T05:35:41;4.00;;;2.42;;
47599;SDS011;33323;52.124;6.018;2022-08-05T05:38:13;6.13;;;2.15;;
47599;SDS011;33323;52.124;6.018;2022-08-05T05:40:53;7.95;;;3.13;;
47599;SDS011;33323;52.124;6.018;2022-08-05T05:43:22;6.00;;;2.30;;
47599;SDS011;33323;52.124;6.018;2022-08-05T05:46:09;6.00;;;2.35;;
47599;SDS011;33323;52.124;6.018;2022-08-05T05:48:44;4.90;;;2.20;;
47599;SDS011;33323;52.124;6.018;2022-08-05T05:51:17;7.47;;;3.00;;
47599;SDS011;33323;52.124;6.018;2022-08-05T05:53:46;6.22;;;2.00;;
47599;SDS011;33323;52.124;6.018;2022-08-05T05:56:25;2.30;;;1.90;;
47599;SDS011;33323;52.124;6.018;2022-08-05T05:59:03;8.32;;;2.38;;
47599;SDS011;33323;52.124;6.018;2022-08-05T06:01:37;6.97;;;1.83;;
47599;SDS011;33323;52.124;6.018;2022-08-05T06:04:23;3.92;;;1.65;;
47599;SDS011;33323;52.124;6.018;2022-08-05T06:06:50;5.72;;;1.80;;
47599;SDS011;33323;52.124;6.018;2022-08-05T06:09:17;11.25;;;3.28;;
47599;SDS011;33323;52.124;6.018;2022-08-05T06:12:04;5.68;;;1.95;;
47599;SDS011;33323;52.124;6.018;2022-08-05T06:14:34;7.75;;;2.30;;
47599;SDS011;33323;52.124;6.018;2022-08-05T06:17:05;9.85;;;2.75;;
47599;SDS011;33323;52.124;6.018;2022-08-05T06:19:49;3.45;;;1.85;;
47599;SDS011;33323;52.124;6.018;2022-08-05T06:24:59;4.00;;;1.70;;
47599;SDS011;33323;52.124;6.018;2022-08-05T06:27:50;5.50;;;2.10;;
47599;SDS011;33323;52.124;6.018;2022-08-05T06:30:37;6.93;;;2.10;;
47599;SDS011;33323;52.124;6.018;2022-08-05T06:33:04;6.35;;;2.13;;
47599;SDS011;33323;52.124;6.018;2022-08-05T06:35:36;4.57;;;1.85;;
47599;SDS011;33323;52.124;6.018;2022-08-05T06:38:23;10.20;;;2.58;;
47599;SDS011;33323;52.124;6.018;2022-08-05T06:41:02;10.23;;;2.13;;
47599;SDS011;33323;52.124;6.018;2022-08-05T06:43:33;5.53;;;2.15;;
47599;SDS011;33323;52.124;6.018;2022-08-05T06:46:21;9.32;;;1.88;;
47599;SDS011;33323;52.124;6.018;2022-08-05T06:48:55;4.85;;;1.77;;
47599;SDS011;33323;52.124;6.018;2022-08-05T06:51:26;5.25;;;2.05;;
47599;SDS011;33323;52.124;6.018;2022-08-05T06:53:56;9.88;;;2.40;;
47599;SDS011;33323;52.124;6.018;2022-08-05T06:56:26;7.88;;;2.17;;
47599;SDS011;33323;52.124;6.018;2022-08-05T06:58:55;4.93;;;2.05;;
47599;SDS011;33323;52.124;6.018;2022-08-05T07:01:22;6.25;;;1.83;;
47599;SDS011;33323;52.124;6.018;2022-08-05T07:03:57;3.00;;;1.80;;
47599;SDS011;33323;52.124;6.018;2022-08-05T07:06:28;9.10;;;1.48;;
47599;SDS011;33323;52.124;6.018;2022-08-05T07:08:57;6.65;;;1.77;;
47599;SDS011;33323;52.124;6.018;2022-08-05T07:11:29;4.35;;;2.08;;
47599;SDS011;33323;52.124;6.018;2022-08-05T07:16:55;4.00;;;1.35;;
47599;SDS011;33323;52.124;6.018;2022-08-05T07:19:50;3.78;;;1.58;;
47599;SDS011;33323;52.124;6.018;2022-08-05T07:22:39;4.18;;;1.40;;
47599;SDS011;33323;52.124;6.018;2022-08-05T07:25:07;2.95;;;1.38;;
47599;SDS011;33323;52.124;6.018;2022-08-05T07:27:50;9.25;;;2.15;;
47599;SDS011;33323;52.124;6.018;2022-08-05T07:30:28;5.00;;;1.40;;
47599;SDS011;33323;52.124;6.018;2022-08-05T07:33:02;6.47;;;0.90;;
47599;SDS011;33323;52.124;6.018;2022-08-05T07:35:36;2.75;;;1.10;;
47599;SDS011;33323;52.124;6.018;2022-08-05T07:38:24;3.03;;;1.10;;
47599;SDS011;33323;52.124;6.018;2022-08-05T07:41:00;4.07;;;1.20;;
47599;SDS011;33323;52.124;6.018;2022-08-05T07:43:49;10.25;;;2.08;;
47599;SDS011;33323;52.124;6.018;2022-08-05T07:46:17;4.75;;;1.65;;
47599;SDS011;33323;52.124;6.018;2022-08-05T07:48:51;2.78;;;1.20;;
47599;SDS011;33323;52.124;6.018;2022-08-05T07:51:30;5.68;;;1.10;;
47599;SDS011;33323;52.124;6.018;2022-08-05T07:54:05;8.43;;;1.27;;
47599;SDS011;33323;52.124;6.018;2022-08-05T07:56:35;4.50;;;1.38;;
47599;SDS011;33323;52.124;6.018;2022-08-05T07:59:23;5.03;;;2.03;;
47599;SDS011;33323;52.124;6.018;2022-08-05T08:02:06;3.75;;;1.17;;
47599;SDS011;33323;52.124;6.018;2022-08-05T08:04:42;5.10;;;1.30;;
47599;SDS011;33323;52.124;6.018;2022-08-05T08:07:15;16.50;;;1.90;;
47599;SDS011;33323;52.124;6.018;2022-08-05T08:09:48;1.80;;;1.05;;
47599;SDS011;33323;52.124;6.018;2022-08-05T08:12:18;3.10;;;0.80;;
47599;SDS011;33323;52.124;6.018;2022-08-05T08:15:09;2.97;;;0.85;;
47599;SDS011;33323;52.124;6.018;2022-08-05T08:17:41;4.63;;;0.80;;
47599;SDS011;33323;52.124;6.018;2022-08-05T08:20:19;4.00;;;0.50;;
47599;SDS011;33323;52.124;6.018;2022-08-05T08:23:10;3.15;;;0.60;;
47599;SDS011;33323;52.124;6.018;2022-08-05T08:25:58;1.35;;;0.60;;
47599;SDS011;33323;52.124;6.018;2022-08-05T08:28:30;3.28;;;0.73;;
47599;SDS011;33323;52.124;6.018;2022-08-05T08:31:17;5.35;;;1.00;;
47599;SDS011;33323;52.124;6.018;2022-08-05T08:33:47;5.78;;;0.70;;
47599;SDS011;33323;52.124;6.018;2022-08-05T08:36:18;2.75;;;0.60;;
47599;SDS011;33323;52.124;6.018;2022-08-05T08:39:05;3.35;;;0.90;;
47599;SDS011;33323;52.124;6.018;2022-08-05T08:41:41;7.38;;;1.00;;
47599;SDS011;33323;52.124;6.018;2022-08-05T08:44:26;2.10;;;0.68;;
47599;SDS011;33323;52.124;6.018;2022-08-05T08:47:17;0.88;;;0.43;;
47599;SDS011;33323;52.124;6.018;2022-08-05T08:50:11;5.75;;;0.60;;
47599;SDS011;33323;52.124;6.018;2022-08-05T08:53:00;1.67;;;0.43;;
47599;SDS011;33323;52.124;6.018;2022-08-05T08:55:38;1.02;;;0.40;;
47599;SDS011;33323;52.124;6.018;2022-08-05T08:58:26;2.17;;;0.38;;
47599;SDS011;33323;52.124;6.018;2022-08-05T09:01:12;3.38;;;0.47;;
47599;SDS011;33323;52.124;6.018;2022-08-05T09:03:42;2.55;;;0.60;;
47599;SDS011;33323;52.124;6.018;2022-08-05T09:06:23;3.42;;;0.40;;
47599;SDS011;33323;52.124;6.018;2022-08-05T09:08:56;2.03;;;1.05;;
47599;SDS011;33323;52.124;6.018;2022-08-05T09:11:25;0.85;;;0.30;;
47599;SDS011;33323;52.124;6.018;2022-08-05T09:14:12;3.47;;;0.30;;
47599;SDS011;33323;52.124;6.018;2022-08-05T09:17:00;1.98;;;0.38;;
47599;SDS011;33323;52.124;6.018;2022-08-05T09:19:35;0.95;;;0.30;;
47599;SDS011;33323;52.124;6.018;2022-08-05T09:22:22;1.52;;;0.40;;
47599;SDS011;33323;52.124;6.018;2022-08-05T09:24:59;3.25;;;0.50;;
47599;SDS011;33323;52.124;6.018;2022-08-05T09:27:48;1.95;;;0.35;;
47599;SDS011;33323;52.124;6.018;2022-08-05T09:30:32;1.88;;;0.82;;
47599;SDS011;33323;52.124;6.018;2022-08-05T09:33:00;2.00;;;0.50;;
47599;SDS011;33323;52.124;6.018;2022-08-05T09:35:30;0.57;;;0.30;;
47599;SDS011;33323;52.124;6.018;2022-08-05T09:37:58;0.93;;;0.50;;
47599;SDS011;33323;52.124;6.018;2022-08-05T09:40:44;1.02;;;0.30;;
47599;SDS011;33323;52.124;6.018;2022-08-05T09:43:30;0.73;;;0.20;;
47599;SDS011;33323;52.124;6.018;2022-08-05T09:46:07;1.30;;;0.20;;
47599;SDS011;33323;52.124;6.018;2022-08-05T09:49:00;0.47;;;0.20;;
47599;SDS011;33323;52.124;6.018;2022-08-05T09:51:45;4.07;;;0.25;;
47599;SDS011;33323;52.124;6.018;2022-08-05T09:54:15;1.35;;;0.20;;
47599;SDS011;33323;52.124;6.018;2022-08-05T09:56:54;4.90;;;0.88;;
47599;SDS011;33323;52.124;6.018;2022-08-05T09:59:23;0.55;;;0.20;;
47599;SDS011;33323;52.124;6.018;2022-08-05T10:01:53;0.88;;;0.20;;
47599;SDS011;33323;52.124;6.018;2022-08-05T10:04:30;1.77;;;0.30;;
47599;SDS011;33323;52.124;6.018;2022-08-05T10:07:03;2.20;;;0.40;;
47599;SDS011;33323;52.124;6.018;2022-08-05T10:09:53;0.80;;;0.10;;
47599;SDS011;33323;52.124;6.018;2022-08-05T10:12:45;1.08;;;0.10;;
47599;SDS011;33323;52.124;6.018;2022-08-05T10:15:24;0.90;;;0.55;;
47599;SDS011;33323;52.124;6.018;2022-08-05T10:18:12;2.22;;;0.20;;
47599;SDS011;33323;52.124;6.018;2022-08-05T10:21:04;0.65;;;0.20;;
47599;SDS011;33323;52.124;6.018;2022-08-05T10:23:41;3.15;;;0.30;;
47599;SDS011;33323;52.124;6.018;2022-08-05T10:26:25;1.05;;;0.20;;
47599;SDS011;33323;52.124;6.018;2022-08-05T10:28:59;0.70;;;0.20;;
47599;SDS011;33323;52.124;6.018;2022-08-05T10:31:26;2.75;;;0.30;;
47599;SDS011;33323;52.124;6.018;2022-08-05T10:34:14;2.00;;;0.30;;
47599;SDS011;33323;52.124;6.018;2022-08-05T10:36:42;1.52;;;0.20;;
47599;SDS011;33323;52.124;6.018;2022-08-05T10:39:24;2.28;;;0.13;;
47599;SDS011;33323;52.124;6.018;2022-08-05T10:42:20;5.05;;;0.30;;
47599;SDS011;33323;52.124;6.018;2022-08-05T10:44:59;1.55;;;0.30;;
47599;SDS011;33323;52.124;6.018;2022-08-05T10:47:48;2.22;;;0.40;;
47599;SDS011;33323;52.124;6.018;2022-08-05T10:50:55;1.52;;;0.08;;
47599;SDS011;33323;52.124;6.018;2022-08-05T10:56:11;1.65;;;0.30;;
47599;SDS011;33323;52.124;6.018;2022-08-05T11:01:37;0.50;;;0.20;;
47599;SDS011;33323;52.124;6.018;2022-08-05T11:04:29;2.33;;;0.20;;
47599;SDS011;33323;52.124;6.018;2022-08-05T11:09:37;0.40;;;0.20;;
47599;SDS011;33323;52.124;6.018;2022-08-05T11:15:15;1.05;;;0.47;;
47599;SDS011;33323;52.124;6.018;2022-08-05T11:17:47;1.88;;;0.20;;
47599;SDS011;33323;52.124;6.018;2022-08-05T11:26:40;5.10;;;0.20;;
47599;SDS011;33323;52.124;6.018;2022-08-05T11:29:11;0.88;;;0.30;;
47599;SDS011;33323;52.124;6.018;2022-08-05T11:32:27;0.50;;;0.15;;
47599;SDS011;33323;52.124;6.018;2022-08-05T11:34:55;4.50;;;0.20;;
47599;SDS011;33323;52.124;6.018;2022-08-05T11:49:26;2.80;;;0.47;;
47599;SDS011;33323;52.124;6.018;2022-08-05T11:51:53;1.52;;;0.20;;
47599;SDS011;33323;52.124;6.018;2022-08-05T11:54:24;0.80;;;0.20;;
47599;SDS011;33323;52.124;6.018;2022-08-05T11:56:59;0.40;;;0.20;;
47599;SDS011;33323;52.124;6.018;2022-08-05T11:59:49;0.82;;;0.32;;
47599;SDS011;33323;52.124;6.018;2022-08-05T12:02:22;2.08;;;0.28;;
47599;SDS011;33323;52.124;6.018;2022-08-05T12:05:01;0.95;;;0.20;;
47599;SDS011;33323;52.124;6.018;2022-08-05T12:07:43;1.40;;;0.22;;
47599;SDS011;33323;52.124;6.018;2022-08-05T12:10:30;5.63;;;0.20;;
47599;SDS011;33323;52.124;6.018;2022-08-05T12:13:11;0.73;;;0.22;;
47599;SDS011;33323;52.124;6.018;2022-08-05T12:15:44;2.00;;;0.20;;
47599;SDS011;33323;52.124;6.018;2022-08-05T12:18:18;2.15;;;0.10;;
47599;SDS011;33323;52.124;6.018;2022-08-05T12:21:11;0.50;;;0.20;;
47599;SDS011;33323;52.124;6.018;2022-08-05T12:26:18;3.50;;;0.47;;
47599;SDS011;33323;52.124;6.018;2022-08-05T12:28:48;7.65;;;0.63;;
47599;SDS011;33323;52.124;6.018;2022-08-05T12:31:15;1.83;;;0.20;;
47599;SDS011;33323;52.124;6.018;2022-08-05T12:33:58;1.98;;;0.30;;
47599;SDS011;33323;52.124;6.018;2022-08-05T12:36:28;1.25;;;0.82;;
47599;SDS011;33323;52.124;6.018;2022-08-05T12:38:56;2.03;;;0.25;;
47599;SDS011;33323;52.124;6.018;2022-08-05T12:41:29;5.85;;;0.45;;
47599;SDS011;33323;52.124;6.018;2022-08-05T12:44:09;1.63;;;0.20;;
47599;SDS011;33323;52.124;6.018;2022-08-05T12:46:40;1.65;;;0.15;;
47599;SDS011;33323;52.124;6.018;2022-08-05T12:49:13;3.35;;;0.50;;
47599;SDS011;33323;52.124;6.018;2022-08-05T12:51:56;1.13;;;0.20;;
47599;SDS011;33323;52.124;6.018;2022-08-05T12:54:45;0.38;;;0.15;;
47599;SDS011;33323;52.124;6.018;2022-08-05T12:57:17;1.70;;;0.20;;
47599;SDS011;33323;52.124;6.018;2022-08-05T12:59:54;1.65;;;0.52;;
47599;SDS011;33323;52.124;6.018;2022-08-05T13:02:41;2.03;;;0.25;;
47599;SDS011;33323;52.124;6.018;2022-08-05T13:05:12;0.85;;;0.17;;
47599;SDS011;33323;52.124;6.018;2022-08-05T13:07:41;0.63;;;0.10;;
47599;SDS011;33323;52.124;6.018;2022-08-05T13:12:54;2.83;;;0.30;;
47599;SDS011;33323;52.124;6.018;2022-08-05T13:15:29;0.68;;;0.30;;
47599;SDS011;33323;52.124;6.018;2022-08-05T13:18:07;1.55;;;0.45;;
47599;SDS011;33323;52.124;6.018;2022-08-05T13:20:35;0.40;;;0.20;;
47599;SDS011;33323;52.124;6.018;2022-08-05T13:23:05;1.27;;;0.20;;
47599;SDS011;33323;52.124;6.018;2022-08-05T13:25:33;0.80;;;0.20;;
47599;SDS011;33323;52.124;6.018;2022-08-05T13:28:20;2.70;;;0.35;;
47599;SDS011;33323;52.124;6.018;2022-08-05T13:30:47;0.77;;;0.20;;
47599;SDS011;33323;52.124;6.018;2022-08-05T13:33:18;1.70;;;0.30;;
47599;SDS011;33323;52.124;6.018;2022-08-05T13:36:06;0.85;;;0.30;;
47599;SDS011;33323;52.124;6.018;2022-08-05T13:38:35;2.65;;;0.10;;
47599;SDS011;33323;52.124;6.018;2022-08-05T13:41:08;2.10;;;0.40;;
47599;SDS011;33323;52.124;6.018;2022-08-05T13:43:38;0.52;;;0.10;;
47599;SDS011;33323;52.124;6.018;2022-08-05T13:46:20;0.82;;;0.20;;
47599;SDS011;33323;52.124;6.018;2022-08-05T13:49:11;0.68;;;0.10;;
47599;SDS011;33323;52.124;6.018;2022-08-05T13:51:39;2.92;;;0.32;;
47599;SDS011;33323;52.124;6.018;2022-08-05T13:54:12;0.85;;;0.10;;
47599;SDS011;33323;52.124;6.018;2022-08-05T13:56:42;0.57;;;0.25;;
47599;SDS011;33323;52.124;6.018;2022-08-05T13:59:21;0.30;;;0.10;;
47599;SDS011;33323;52.124;6.018;2022-08-05T14:01:51;1.52;;;0.30;;
47599;SDS011;33323;52.124;6.018;2022-08-05T14:07:30;1.73;;;0.20;;
47599;SDS011;33323;52.124;6.018;2022-08-05T14:10:23;1.08;;;0.20;;
47599;SDS011;33323;52.124;6.018;2022-08-05T14:12:56;1.52;;;0.20;;
47599;SDS011;33323;52.124;6.018;2022-08-05T14:15:24;1.40;;;0.30;;
47599;SDS011;33323;52.124;6.018;2022-08-05T14:18:12;1.20;;;0.20;;
47599;SDS011;33323;52.124;6.018;2022-08-05T14:20:44;2.40;;;0.22;;
47599;SDS011;33323;52.124;6.018;2022-08-05T14:23:14;1.75;;;0.10;;
47599;SDS011;33323;52.124;6.018;2022-08-05T14:25:50;1.30;;;0.20;;
47599;SDS011;33323;52.124;6.018;2022-08-05T14:28:24;3.30;;;0.20;;
47599;SDS011;33323;52.124;6.018;2022-08-05T14:30:53;0.65;;;0.20;;
47599;SDS011;33323;52.124;6.018;2022-08-05T14:33:25;1.42;;;0.20;;
47599;SDS011;33323;52.124;6.018;2022-08-05T14:36:16;1.17;;;0.63;;
47599;SDS011;33323;52.124;6.018;2022-08-05T14:38:46;1.02;;;0.22;;
47599;SDS011;33323;52.124;6.018;2022-08-05T14:41:14;1.35;;;0.28;;
47599;SDS011;33323;52.124;6.018;2022-08-05T14:43:43;1.60;;;0.20;;
47599;SDS011;33323;52.124;6.018;2022-08-05T14:46:25;2.10;;;0.25;;
47599;SDS011;33323;52.124;6.018;2022-08-05T14:48:56;0.35;;;0.10;;
47599;SDS011;33323;52.124;6.018;2022-08-05T14:51:33;1.55;;;0.40;;
47599;SDS011;33323;52.124;6.018;2022-08-05T14:54:03;6.10;;;0.35;;
47599;SDS011;33323;52.124;6.018;2022-08-05T14:56:53;1.10;;;0.20;;
47599;SDS011;33323;52.124;6.018;2022-08-05T14:59:21;1.77;;;0.32;;
47599;SDS011;33323;52.124;6.018;2022-08-05T15:01:48;4.03;;;0.40;;
47599;SDS011;33323;52.124;6.018;2022-08-05T15:04:16;0.98;;;0.20;;
47599;SDS011;33323;52.124;6.018;2022-08-05T15:06:47;4.50;;;0.30;;
47599;SDS011;33323;52.124;6.018;2022-08-05T15:09:17;1.85;;;0.20;;
47599;SDS011;33323;52.124;6.018;2022-08-05T15:12:06;2.25;;;0.25;;
47599;SDS011;33323;52.124;6.018;2022-08-05T15:14:44;2.03;;;0.10;;
47599;SDS011;33323;52.124;6.018;2022-08-05T15:17:18;0.63;;;0.10;;
47599;SDS011;33323;52.124;6.018;2022-08-05T15:20:07;2.22;;;0.30;;
47599;SDS011;33323;52.124;6.018;2022-08-05T15:22:44;2.05;;;0.30;;
47599;SDS011;33323;52.124;6.018;2022-08-05T15:25:19;0.35;;;0.30;;
47599;SDS011;33323;52.124;6.018;2022-08-05T15:28:10;1.20;;;0.20;;
47599;SDS011;33323;52.124;6.018;2022-08-05T15:30:41;7.03;;;0.40;;
47599;SDS011;33323;52.124;6.018;2022-08-05T15:33:12;1.20;;;0.30;;
47599;SDS011;33323;52.124;6.018;2022-08-05T15:36:03;2.72;;;0.32;;
47599;SDS011;33323;52.124;6.018;2022-08-05T15:38:42;3.60;;;0.30;;
47599;SDS011;33323;52.124;6.018;2022-08-05T15:41:09;0.70;;;0.10;;
47599;SDS011;33323;52.124;6.018;2022-08-05T15:43:49;1.10;;;0.20;;
47599;SDS011;33323;52.124;6.018;2022-08-05T15:46:20;0.93;;;0.20;;
47599;SDS011;33323;52.124;6.018;2022-08-05T15:48:49;1.70;;;0.20;;
47599;SDS011;33323;52.124;6.018;2022-08-05T15:51:34;1.38;;;0.50;;
47599;SDS011;33323;52.124;6.018;2022-08-05T15:54:21;0.95;;;0.20;;
47599;SDS011;33323;52.124;6.018;2022-08-05T15:57:02;2.28;;;0.32;;
47599;SDS011;33323;52.124;6.018;2022-08-05T15:59:33;1.90;;;0.20;;
47599;SDS011;33323;52.124;6.018;2022-08-05T16:02:03;4.85;;;0.68;;
47599;SDS011;33323;52.124;6.018;2022-08-05T16:04:39;1.98;;;0.20;;
47599;SDS011;33323;52.124;6.018;2022-08-05T16:07:07;1.33;;;0.20;;
47599;SDS011;33323;52.124;6.018;2022-08-05T16:09:36;1.33;;;0.10;;
47599;SDS011;33323;52.124;6.018;2022-08-05T16:12:07;0.32;;;0.20;;
47599;SDS011;33323;52.124;6.018;2022-08-05T16:14:36;1.98;;;0.40;;
47599;SDS011;33323;52.124;6.018;2022-08-05T16:17:03;3.85;;;0.30;;
47599;SDS011;33323;52.124;6.018;2022-08-05T16:19:31;2.58;;;0.57;;
47599;SDS011;33323;52.124;6.018;2022-08-05T16:22:18;4.50;;;0.52;;
47599;SDS011;33323;52.124;6.018;2022-08-05T16:24:53;2.23;;;0.30;;
47599;SDS011;33323;52.124;6.018;2022-08-05T16:27:20;0.45;;;0.20;;
47599;SDS011;33323;52.124;6.018;2022-08-05T16:30:09;2.00;;;0.65;;
47599;SDS011;33323;52.124;6.018;2022-08-05T16:32:48;2.45;;;0.30;;
47599;SDS011;33323;52.124;6.018;2022-08-05T16:35:15;4.45;;;0.77;;
47599;SDS011;33323;52.124;6.018;2022-08-05T16:37:43;5.10;;;1.00;;
47599;SDS011;33323;52.124;6.018;2022-08-05T16:40:30;3.25;;;0.20;;
47599;SDS011;33323;52.124;6.018;2022-08-05T16:42:58;2.13;;;0.30;;